Time;durP1;ratioP1;P1;durP2;ratioP2;P2;SDS_P1;SDS_P2;PMS_P1;PMS_P2;Temp;Humidity;BMP_temperature;BMP_pressure;BME280_temperature;BME280_humidity;BME280_pressure;Samples;Min_cycle;Max_cycle;Signal;HPM_P1;HPM_P2
2023/03/26 00:00:47;;;;;;;8.63;3.03;;;20.60;65.80;;;;;;4925372;28;93314;-82
2023/03/26 00:03:15;;;;;;;8.23;3.00;;;20.60;66.00;;;;;;4924048;28;89342;-81
2023/03/26 00:05:41;;;;;;;9.95;3.05;;;20.60;66.10;;;;;;4924131;28;87452;-82
2023/03/26 00:08:08;;;;;;;6.07;2.90;;;20.60;65.90;;;;;;4928401;28;87439;-81
2023/03/26 00:10:36;;;;;;;8.27;2.97;;;20.60;65.90;;;;;;4925938;28;88185;-81
2023/03/26 00:13:02;;;;;;;9.32;2.88;;;20.60;65.70;;;;;;4925721;28;87517;-82
2023/03/26 00:15:28;;;;;;;8.23;2.63;;;20.60;65.60;;;;;;4927779;28;87616;-82
2023/03/26 00:17:55;;;;;;;7.07;3.20;;;20.60;65.70;;;;;;4926496;28;86262;-81
2023/03/26 00:20:21;;;;;;;9.75;2.85;;;20.60;65.70;;;;;;4927679;28;90073;-82
2023/03/26 00:22:47;;;;;;;7.57;2.90;;;20.60;65.80;;;;;;4926524;28;88289;-82
2023/03/26 00:25:13;;;;;;;8.93;3.30;;;20.60;65.80;;;;;;4926641;28;88503;-82
2023/03/26 00:27:46;;;;;;;6.90;3.05;;;20.50;65.80;;;;;;4920165;28;88156;-82
2023/03/26 00:30:12;;;;;;;7.03;3.22;;;20.50;65.90;;;;;;4927340;28;89558;-82
2023/03/26 00:32:38;;;;;;;6.65;2.95;;;20.50;65.90;;;;;;4924742;28;87761;-82
2023/03/26 00:35:04;;;;;;;7.38;2.92;;;20.50;65.90;;;;;;4925043;28;87488;-82
2023/03/26 00:37:32;;;;;;;10.40;3.25;;;20.50;65.80;;;;;;4928464;28;87315;-81
2023/03/26 00:40:01;;;;;;;9.93;3.53;;;20.50;65.70;;;;;;4926915;28;88886;-82
2023/03/26 00:42:28;;;;;;;11.63;3.13;;;20.50;66.80;;;;;;4926476;28;87803;-82
2023/03/26 00:44:56;;;;;;;6.43;2.70;;;20.40;65.70;;;;;;4927513;28;87105;-81
2023/03/26 00:47:26;;;;;;;7.90;2.88;;;20.50;65.90;;;;;;4924708;28;87412;-81
2023/03/26 00:49:52;;;;;;;8.05;3.25;;;20.50;65.90;;;;;;4925142;28;88969;-81
2023/03/26 00:52:18;;;;;;;6.15;3.03;;;20.40;65.70;;;;;;4929615;28;88398;-81
2023/03/26 00:54:45;;;;;;;6.15;2.65;;;20.40;65.80;;;;;;4927507;28;87436;-81
2023/03/26 00:57:11;;;;;;;7.43;2.83;;;20.40;65.80;;;;;;4924113;28;86862;-82
2023/03/26 00:59:41;;;;;;;6.38;2.47;;;20.40;66.00;;;;;;4925863;28;89917;-81
2023/03/26 01:02:10;;;;;;;7.03;2.33;;;20.30;66.00;;;;;;4925199;28;89652;-82
2023/03/26 01:04:36;;;;;;;3.90;2.40;;;20.40;66.00;;;;;;4907228;28;88418;-82
2023/03/26 01:07:20;;;;;;;7.32;2.47;;;20.40;66.10;;;;;;4895169;28;87282;-81
2023/03/26 01:09:51;;;;;;;5.63;2.30;;;20.30;66.00;;;;;;4927216;28;91905;-82
2023/03/26 01:12:23;;;;;;;8.48;3.20;;;20.30;66.00;;;;;;4924747;28;87415;-82
2023/03/26 01:14:51;;;;;;;7.20;2.58;;;20.30;66.00;;;;;;4927013;28;88564;-82
2023/03/26 01:17:17;;;;;;;8.70;2.63;;;20.30;66.00;;;;;;4927148;28;87572;-82
2023/03/26 01:19:55;;;;;;;6.20;2.30;;;20.30;65.90;;;;;;4925435;28;88084;-81
2023/03/26 01:22:23;;;;;;;8.63;2.63;;;20.30;65.90;;;;;;4926282;28;88766;-82
2023/03/26 01:24:55;;;;;;;7.68;2.88;;;20.30;65.90;;;;;;4926443;28;87135;-82
2023/03/26 01:27:31;;;;;;;7.25;2.58;;;20.30;65.90;;;;;;4925290;28;87707;-82
2023/03/26 01:30:38;;;;;;;7.82;2.50;;;20.20;65.90;;;;;;4925648;28;90004;-82
2023/03/26 01:33:29;;;;;;;7.10;2.55;;;20.20;65.90;;;;;;4927895;28;87334;-82
2023/03/26 01:36:07;;;;;;;4.88;2.35;;;20.30;65.90;;;;;;4914760;28;87053;-82
2023/03/26 01:38:47;;;;;;;5.97;2.50;;;20.20;65.90;;;;;;4924012;28;88664;-82
2023/03/26 01:41:31;;;;;;;7.13;3.10;;;20.30;65.90;;;;;;4924706;28;89462;-82
2023/03/26 01:44:10;;;;;;;5.43;2.55;;;20.20;65.90;;;;;;4924423;28;87532;-82
2023/03/26 01:46:36;;;;;;;5.10;2.33;;;20.20;65.90;;;;;;4927632;28;87535;-81
2023/03/26 01:49:04;;;;;;;6.82;2.50;;;20.20;65.90;;;;;;4929934;28;86974;-82
2023/03/26 01:51:34;;;;;;;5.53;2.50;;;20.20;65.90;;;;;;4930416;28;87556;-82
2023/03/26 01:54:06;;;;;;;5.88;2.30;;;20.20;65.90;;;;;;4929678;28;88310;-81
2023/03/26 01:56:41;;;;;;;6.43;2.20;;;20.20;66.00;;;;;;4928576;28;87278;-81
2023/03/26 01:59:23;;;;;;;6.10;2.70;;;20.20;65.90;;;;;;4928349;28;88867;-82
2023/03/26 02:01:56;;;;;;;8.10;3.00;;;20.20;66.00;;;;;;4932389;28;88565;-81
2023/03/26 02:04:36;;;;;;;5.70;2.38;;;20.20;65.90;;;;;;4926746;28;90543;-81
2023/03/26 02:07:20;;;;;;;5.47;2.67;;;20.10;66.00;;;;;;4926766;28;88087;-81
2023/03/26 02:09:51;;;;;;;6.72;2.67;;;20.20;65.90;;;;;;4930725;28;91781;-82
2023/03/26 02:12:19;;;;;;;5.72;2.70;;;20.20;65.90;;;;;;4928044;28;90442;-82
2023/03/26 02:14:46;;;;;;;5.35;2.22;;;20.10;65.90;;;;;;4931011;28;87826;-82
2023/03/26 02:17:11;;;;;;;6.90;2.67;;;20.20;65.80;;;;;;4929776;28;87189;-82
2023/03/26 02:19:41;;;;;;;6.38;2.42;;;20.10;65.80;;;;;;4927359;28;87735;-81
2023/03/26 02:22:14;;;;;;;7.07;2.67;;;20.10;65.90;;;;;;4929336;28;89216;-81
2023/03/26 02:24:41;;;;;;;7.57;2.67;;;20.10;65.90;;;;;;4927257;28;89535;-81
2023/03/26 02:27:08;;;;;;;5.22;2.13;;;20.10;65.60;;;;;;4926703;28;87288;-81
2023/03/26 02:29:38;;;;;;;4.82;2.03;;;20.10;65.80;;;;;;4928442;28;88484;-82
2023/03/26 02:32:11;;;;;;;4.82;2.15;;;20.10;65.80;;;;;;4926045;28;90494;-81
2023/03/26 02:34:40;;;;;;;7.97;2.15;;;20.10;65.70;;;;;;4928352;28;89897;-81
2023/03/26 02:37:06;;;;;;;7.72;2.55;;;20.00;65.50;;;;;;4927680;28;88252;-82
2023/03/26 02:39:33;;;;;;;6.25;2.08;;;20.10;65.70;;;;;;4928166;28;87005;-82
2023/03/26 02:41:59;;;;;;;5.28;2.17;;;20.10;65.60;;;;;;4929567;28;87682;-82
2023/03/26 02:44:26;;;;;;;4.50;2.20;;;20.10;65.70;;;;;;4926744;28;89716;-82
2023/03/26 02:46:51;;;;;;;5.80;2.53;;;20.10;65.80;;;;;;4929956;28;86944;-82
2023/03/26 02:49:17;;;;;;;5.00;2.40;;;20.00;65.70;;;;;;4929080;28;87013;-81
2023/03/26 02:51:43;;;;;;;5.72;2.65;;;20.00;65.70;;;;;;4927619;28;88000;-81
2023/03/26 02:54:09;;;;;;;4.03;2.00;;;20.10;65.60;;;;;;4927461;28;88125;-82
2023/03/26 02:56:34;;;;;;;6.50;2.20;;;20.00;65.40;;;;;;4928176;28;88729;-81
2023/03/26 02:59:00;;;;;;;6.30;2.03;;;20.10;65.60;;;;;;4927401;28;88584;-81
2023/03/26 03:01:29;;;;;;;4.82;1.80;;;20.00;65.60;;;;;;4928742;28;90157;-82
2023/03/26 03:03:55;;;;;;;4.65;2.22;;;20.00;65.60;;;;;;4907840;28;88107;-82
2023/03/26 03:06:21;;;;;;;4.50;2.40;;;20.00;65.60;;;;;;4928237;28;87392;-81
2023/03/26 03:08:46;;;;;;;4.40;2.10;;;20.00;65.50;;;;;;4930157;28;87327;-81
2023/03/26 03:11:20;;;;;;;4.85;1.88;;;20.00;65.60;;;;;;4926577;28;87756;-81
2023/03/26 03:13:46;;;;;;;5.03;2.00;;;20.00;65.50;;;;;;4928758;28;88827;-82
2023/03/26 03:16:12;;;;;;;9.00;2.85;;;20.00;65.40;;;;;;4926584;28;87102;-81
2023/03/26 03:18:37;;;;;;;4.13;2.00;;;20.00;65.50;;;;;;4929452;28;88795;-82
2023/03/26 03:21:04;;;;;;;3.75;2.03;;;20.00;65.40;;;;;;4927727;28;88264;-81
2023/03/26 03:23:30;;;;;;;5.80;2.03;;;20.00;65.60;;;;;;4926116;28;88146;-82
2023/03/26 03:25:59;;;;;;;3.08;1.70;;;20.00;65.40;;;;;;4927150;28;87795;-81
2023/03/26 03:28:25;;;;;;;4.83;2.00;;;20.00;65.40;;;;;;4918805;28;87214;-81
2023/03/26 03:30:56;;;;;;;3.13;1.80;;;20.00;65.30;;;;;;4927528;28;88284;-81
2023/03/26 03:33:22;;;;;;;5.85;1.90;;;20.00;65.40;;;;;;4925276;28;90160;-82
2023/03/26 03:35:49;;;;;;;4.13;2.22;;;20.00;65.20;;;;;;4926720;28;87881;-81
2023/03/26 03:38:16;;;;;;;4.43;1.88;;;20.00;65.50;;;;;;4928770;28;86474;-82
2023/03/26 03:40:42;;;;;;;3.10;1.65;;;20.00;65.40;;;;;;4924783;28;88469;-82
2023/03/26 03:43:08;;;;;;;4.32;2.15;;;20.00;65.30;;;;;;4926580;28;87377;-82
2023/03/26 03:45:34;;;;;;;6.00;1.92;;;20.00;65.20;;;;;;4928643;28;88579;-81
2023/03/26 03:48:00;;;;;;;3.75;2.00;;;19.90;65.30;;;;;;4924705;28;87404;-81
2023/03/26 03:50:25;;;;;;;5.70;2.38;;;19.90;65.30;;;;;;4926254;28;87604;-82
2023/03/26 03:52:52;;;;;;;4.60;1.75;;;19.90;65.50;;;;;;4927395;28;88195;-82
2023/03/26 03:55:17;;;;;;;4.40;2.17;;;19.90;65.30;;;;;;4925483;28;86980;-81
2023/03/26 03:57:43;;;;;;;4.55;1.92;;;19.90;65.20;;;;;;4928287;28;94635;-82
2023/03/26 04:00:10;;;;;;;4.32;1.77;;;19.90;65.20;;;;;;4923605;28;88380;-82
2023/03/26 04:02:37;;;;;;;3.85;1.80;;;19.90;65.20;;;;;;4925517;28;88616;-82
2023/03/26 04:05:04;;;;;;;4.05;1.88;;;19.90;65.20;;;;;;4927756;28;87150;-82
2023/03/26 04:07:38;;;;;;;4.03;2.00;;;19.90;64.90;;;;;;4928180;28;87594;-82
2023/03/26 04:10:04;;;;;;;4.20;1.95;;;19.90;65.00;;;;;;4927874;28;89504;-81
2023/03/26 04:12:31;;;;;;;4.82;2.10;;;19.90;65.00;;;;;;4928632;28;87762;-82
2023/03/26 04:14:58;;;;;;;3.97;2.00;;;19.90;65.10;;;;;;4924996;28;87049;-81
2023/03/26 04:17:23;;;;;;;4.45;2.08;;;19.90;65.10;;;;;;4927138;28;87275;-82
2023/03/26 04:19:51;;;;;;;4.20;1.58;;;19.90;65.30;;;;;;4924912;28;89029;-82
2023/03/26 04:22:18;;;;;;;4.03;1.67;;;19.90;65.20;;;;;;4929103;28;88903;-82
2023/03/26 04:24:44;;;;;;;2.90;1.58;;;19.80;65.10;;;;;;4927617;28;87270;-81
2023/03/26 04:27:17;;;;;;;4.72;2.17;;;19.80;65.20;;;;;;4926993;28;86913;-81
2023/03/26 04:29:48;;;;;;;6.07;2.17;;;19.80;65.10;;;;;;4925548;28;89459;-82
2023/03/26 04:32:33;;;;;;;4.22;1.83;;;19.80;65.20;;;;;;4924783;28;87884;-82
2023/03/26 04:35:02;;;;;;;4.78;1.90;;;19.80;65.00;;;;;;4924517;28;88542;-82
2023/03/26 04:37:38;;;;;;;;;;;19.80;64.90;;;;;;4927274;28;87351;-82
2023/03/26 04:40:09;;;;;;;4.43;2.00;;;19.80;64.80;;;;;;4928219;28;88216;-81
2023/03/26 04:42:36;;;;;;;4.55;2.17;;;19.80;64.80;;;;;;4925552;28;88856;-82
2023/03/26 04:45:04;;;;;;;4.38;2.00;;;19.80;64.80;;;;;;4924949;28;87039;-82
2023/03/26 04:47:30;;;;;;;2.58;1.60;;;19.80;64.90;;;;;;4925710;28;87300;-81
2023/03/26 04:49:56;;;;;;;2.92;1.63;;;19.80;64.90;;;;;;4928031;28;88019;-82
2023/03/26 04:52:22;;;;;;;3.33;1.63;;;19.80;64.90;;;;;;4927593;28;87359;-82
2023/03/26 04:54:48;;;;;;;4.47;1.83;;;19.80;65.10;;;;;;4928894;28;86969;-81
2023/03/26 04:57:38;;;;;;;3.53;1.73;;;19.80;65.00;;;;;;4929474;28;87873;-82
2023/03/26 05:00:14;;;;;;;3.58;1.73;;;19.70;65.00;;;;;;4923833;28;88193;-82
2023/03/26 05:02:41;;;;;;;3.30;1.83;;;19.70;65.80;;;;;;4925012;28;88399;-82
2023/03/26 05:05:08;;;;;;;4.10;1.80;;;19.70;64.90;;;;;;4928902;28;87883;-82
2023/03/26 05:07:34;;;;;;;4.93;2.10;;;19.80;65.00;;;;;;4928755;28;87420;-82
2023/03/26 05:10:02;;;;;;;4.63;2.20;;;19.70;64.90;;;;;;4909652;28;89855;-82
2023/03/26 05:12:28;;;;;;;3.97;1.55;;;19.70;64.90;;;;;;4923356;28;87291;-82
2023/03/26 05:14:54;;;;;;;2.45;1.60;;;19.70;64.80;;;;;;4927530;28;87591;-82
2023/03/26 05:17:22;;;;;;;3.55;1.60;;;19.70;65.00;;;;;;4927624;28;86597;-82
2023/03/26 05:19:48;;;;;;;2.88;1.60;;;19.70;64.90;;;;;;4926502;28;89245;-82
2023/03/26 05:22:13;;;;;;;3.60;1.75;;;19.70;65.00;;;;;;4930457;28;87906;-81
2023/03/26 05:24:39;;;;;;;3.72;1.70;;;19.70;64.90;;;;;;4932394;28;88287;-82
2023/03/26 05:27:05;;;;;;;4.45;2.05;;;19.70;65.10;;;;;;4929692;28;86967;-82
2023/03/26 05:29:31;;;;;;;3.35;1.83;;;19.70;65.10;;;;;;4928613;28;89230;-82
2023/03/26 05:31:56;;;;;;;4.55;2.15;;;19.70;65.10;;;;;;4930603;28;88744;-82
2023/03/26 05:34:25;;;;;;;4.47;1.75;;;19.70;64.90;;;;;;4919872;28;87456;-81
2023/03/26 05:36:52;;;;;;;3.95;1.70;;;19.70;64.90;;;;;;4929366;28;87523;-82
2023/03/26 05:39:18;;;;;;;5.43;1.75;;;19.70;65.00;;;;;;4929895;28;89128;-82
2023/03/26 05:41:46;;;;;;;3.80;1.65;;;19.70;64.90;;;;;;4931420;28;89668;-82
2023/03/26 05:44:11;;;;;;;3.83;1.88;;;19.60;64.80;;;;;;4929444;28;87365;-81
2023/03/26 05:46:37;;;;;;;3.45;1.55;;;19.60;64.90;;;;;;4930129;28;87368;-82
2023/03/26 05:49:03;;;;;;;4.40;1.55;;;19.60;65.00;;;;;;4927502;28;90780;-81
2023/03/26 05:51:29;;;;;;;4.28;1.95;;;19.60;64.90;;;;;;4930070;28;89069;-82
2023/03/26 05:53:54;;;;;;;3.80;1.50;;;19.60;65.00;;;;;;4927788;28;87297;-82
2023/03/26 05:56:20;;;;;;;3.28;1.73;;;19.60;65.00;;;;;;4928739;28;88349;-82
2023/03/26 05:58:46;;;;;;;3.33;1.75;;;19.60;65.00;;;;;;4930392;28;88854;-81
2023/03/26 06:01:15;;;;;;;2.50;1.38;;;19.60;64.80;;;;;;4927163;28;89328;-81
2023/03/26 06:03:43;;;;;;;3.13;1.58;;;19.60;64.80;;;;;;4919856;28;87876;-81
2023/03/26 06:06:14;;;;;;;2.42;1.40;;;19.60;64.70;;;;;;4929755;28;88107;-81
2023/03/26 06:08:48;;;;;;;3.85;1.85;;;19.60;64.80;;;;;;4929578;28;87324;-82
2023/03/26 06:11:15;;;;;;;3.42;1.65;;;19.60;64.80;;;;;;4928082;28;86994;-81
2023/03/26 06:13:41;;;;;;;2.83;1.55;;;19.60;64.80;;;;;;4929793;28;87958;-81
2023/03/26 06:16:09;;;;;;;4.10;1.38;;;19.60;64.80;;;;;;4930608;28;87010;-83
2023/03/26 06:18:35;;;;;;;4.45;1.70;;;19.60;64.80;;;;;;4932187;28;88079;-83
2023/03/26 06:21:02;;;;;;;8.30;1.88;;;19.70;64.50;;;;;;4917172;28;87434;-82
2023/03/26 06:23:28;;;;;;;3.47;1.50;;;19.80;63.10;;;;;;4927663;28;89179;-81
2023/03/26 06:25:54;;;;;;;4.10;1.52;;;19.90;63.30;;;;;;4926359;28;87203;-82
2023/03/26 06:28:19;;;;;;;7.50;2.35;;;19.90;63.70;;;;;;4928168;28;88102;-81
2023/03/26 06:30:45;;;;;;;9.02;3.05;;;20.00;63.60;;;;;;4928673;28;89387;-82
2023/03/26 06:33:11;;;;;;;10.18;2.85;;;20.10;63.50;;;;;;4925345;28;87716;-81
2023/03/26 06:35:36;;;;;;;10.50;3.15;;;20.10;63.50;;;;;;4927004;28;87305;-81
2023/03/26 06:38:03;;;;;;;12.77;3.45;;;20.30;63.40;;;;;;4924640;28;88397;-82
2023/03/26 06:40:29;;;;;;;9.35;2.97;;;20.50;63.00;;;;;;4924082;28;89029;-82
2023/03/26 06:42:59;;;;;;;7.82;2.90;;;20.50;63.00;;;;;;4926788;28;87367;-82
2023/03/26 06:45:26;;;;;;;9.93;3.20;;;20.60;62.80;;;;;;4925351;28;87789;-82
2023/03/26 06:47:51;;;;;;;10.98;3.42;;;20.80;62.80;;;;;;4926183;28;87669;-82
2023/03/26 06:50:17;;;;;;;8.60;3.58;;;20.80;62.50;;;;;;4924128;28;87736;-82
2023/03/26 06:52:43;;;;;;;9.93;3.03;;;20.90;62.20;;;;;;4925002;28;87345;-82
2023/03/26 06:55:09;;;;;;;12.15;3.28;;;20.90;62.40;;;;;;4925488;28;87431;-80
2023/03/26 06:57:36;;;;;;;10.07;3.28;;;20.90;62.50;;;;;;4926945;28;89446;-82
2023/03/26 07:00:02;;;;;;;12.52;3.28;;;21.00;62.80;;;;;;4927767;28;89935;-85
2023/03/26 07:02:28;;;;;;;10.45;3.13;;;21.10;62.70;;;;;;4930840;28;94820;-82
2023/03/26 07:04:54;;;;;;;13.55;3.20;;;21.10;62.60;;;;;;4874757;28;87740;-83
2023/03/26 07:07:22;;;;;;;10.05;3.78;;;21.00;62.40;;;;;;4906449;28;88652;-82
2023/03/26 07:09:48;;;;;;;10.30;3.57;;;20.90;62.60;;;;;;4907690;28;88429;-82
2023/03/26 07:12:14;;;;;;;10.95;2.90;;;20.90;62.90;;;;;;4922785;28;86903;-82
2023/03/26 07:14:39;;;;;;;10.77;3.83;;;20.80;63.30;;;;;;4927456;28;86895;-83
2023/03/26 07:17:05;;;;;;;11.27;3.17;;;20.90;63.60;;;;;;4925021;28;89118;-81
2023/03/26 07:19:31;;;;;;;9.93;3.30;;;20.90;63.70;;;;;;4925061;28;89188;-83
2023/03/26 07:21:57;;;;;;;9.80;3.25;;;20.90;63.40;;;;;;4925766;28;86871;-83
2023/03/26 07:24:23;;;;;;;12.30;3.95;;;21.00;63.50;;;;;;4926306;28;87557;-82
2023/03/26 07:26:58;;;;;;;8.13;2.80;;;21.10;63.70;;;;;;4925347;28;89370;-82
2023/03/26 07:29:32;;;;;;;9.55;3.28;;;21.10;63.90;;;;;;4912880;28;90789;-83
2023/03/26 07:32:07;;;;;;;10.00;3.22;;;21.10;64.00;;;;;;4927403;28;87436;-83
2023/03/26 07:34:58;;;;;;;15.50;3.38;;;21.10;64.10;;;;;;4943475;28;87484;-84
2023/03/26 07:38:02;;;;;;;10.73;3.50;;;21.10;63.80;;;;;;4944570;28;88291;-83
2023/03/26 07:40:48;;;;;;;13.88;3.65;;;21.10;64.00;;;;;;4924050;28;87626;-83
2023/03/26 07:43:32;;;;;;;10.63;3.65;;;21.10;63.90;;;;;;4925297;28;87648;-89
2023/03/26 07:45:58;;;;;;;9.65;3.25;;;21.10;64.30;;;;;;4906041;28;94033;-90
2023/03/26 07:48:28;;;;;;;12.75;3.38;;;21.20;64.40;;;;;;4920804;28;87798;-90
2023/03/26 07:50:54;;;;;;;12.82;3.65;;;21.20;64.40;;;;;;4923799;28;87830;-91
2023/03/26 07:53:21;;;;;;;16.02;3.65;;;21.10;64.50;;;;;;4922025;28;88594;-89
2023/03/26 07:55:56;;;;;;;9.88;3.33;;;21.00;64.70;;;;;;4921076;28;90746;-91
2023/03/26 07:58:56;;;;;;;10.13;3.08;;;21.00;65.00;;;;;;4911225;28;87712;-90
2023/03/26 08:01:30;;;;;;;;;;;21.00;64.70;;;;;;4912040;28;90365;-89
2023/03/26 08:04:05;;;;;;;18.30;4.40;;;21.10;63.50;;;;;;4922730;28;87907;-89
2023/03/26 08:06:36;;;;;;;15.15;3.80;;;21.20;63.20;;;;;;4919100;28;87743;-90
2023/03/26 08:09:07;;;;;;;11.00;4.15;;;21.20;63.40;;;;;;4919625;28;88354;-90
2023/03/26 08:12:05;;;;;;;13.05;3.92;;;21.30;63.50;;;;;;4920004;28;88105;-90
2023/03/26 08:14:36;;;;;;;13.23;4.03;;;21.50;63.20;;;;;;4911864;28;87224;-91
2023/03/26 08:17:29;;;;;;;13.38;3.78;;;21.60;63.00;;;;;;4924216;28;87464;-89
2023/03/26 08:20:35;;;;;;;17.25;3.72;;;21.60;62.30;;;;;;4927701;28;89521;-83
2023/03/26 08:23:29;;;;;;;13.43;3.92;;;21.70;62.20;;;;;;4897005;28;90875;-83
2023/03/26 08:26:12;;;;;;;10.60;3.53;;;21.70;61.80;;;;;;4851632;28;87883;-82
2023/03/26 08:28:51;;;;;;;13.30;3.88;;;21.70;61.60;;;;;;4853681;28;89494;-83
2023/03/26 08:31:18;;;;;;;;;;;21.70;61.40;;;;;;4852894;29;87663;-82
2023/03/26 08:33:44;;;;;;;11.43;3.42;;;21.60;61.00;;;;;;4870580;28;91604;-82
2023/03/26 08:36:09;;;;;;;13.52;4.40;;;21.60;60.90;;;;;;4868708;28;87911;-82
2023/03/26 08:38:35;;;;;;;11.27;3.95;;;21.50;60.70;;;;;;4870099;28;87064;-82
2023/03/26 08:41:18;;;;;;;10.93;3.80;;;21.60;60.80;;;;;;4868354;28;88282;-81
2023/03/26 08:44:12;;;;;;;11.68;4.18;;;21.50;61.60;;;;;;4868887;28;87574;-82
2023/03/26 08:46:45;;;;;;;16.85;4.35;;;21.50;61.90;;;;;;4867049;28;88434;-84
2023/03/26 08:49:28;;;;;;;21.80;6.00;;;21.50;61.80;;;;;;4868810;28;87607;-84
2023/03/26 08:52:27;;;;;;;23.17;7.15;;;21.50;61.30;;;;;;4869135;28;92960;-82
2023/03/26 08:55:14;;;;;;;16.73;6.22;;;21.50;61.20;;;;;;4868974;28;92782;-83
2023/03/26 08:58:10;;;;;;;21.88;5.80;;;21.60;60.70;;;;;;4873989;28;86986;-81
2023/03/26 09:00:40;;;;;;;52.15;14.85;;;21.60;60.70;;;;;;4861764;28;87583;-82
2023/03/26 09:03:44;;;;;;;47.33;13.80;;;21.60;60.40;;;;;;4904426;28;90518;-84
2023/03/26 09:06:35;;;;;;;153.52;45.00;;;21.70;61.40;;;;;;4918445;28;90154;-82
2023/03/26 09:09:18;;;;;;;174.32;48.60;;;21.70;61.80;;;;;;4914501;28;87631;-84
2023/03/26 09:11:56;;;;;;;193.02;53.17;;;21.80;61.50;;;;;;4920938;28;87310;-84
2023/03/26 09:14:52;;;;;;;206.13;56.97;;;21.70;61.80;;;;;;4926121;28;89419;-84
2023/03/26 09:17:54;;;;;;;198.57;55.05;;;21.70;62.10;;;;;;4924899;28;88644;-84
2023/03/26 09:20:40;;;;;;;186.90;52.95;;;21.70;62.30;;;;;;4917116;28;87353;-83
2023/03/26 09:23:17;;;;;;;179.32;51.35;;;21.70;62.50;;;;;;4860681;28;88693;-85
2023/03/26 09:26:00;;;;;;;188.27;53.67;;;21.70;62.90;;;;;;4870151;28;87370;-83
2023/03/26 09:28:49;;;;;;;176.43;52.17;;;21.70;63.30;;;;;;4857105;28;87760;-89
2023/03/26 09:31:36;;;;;;;185.33;51.37;;;21.80;63.60;;;;;;4862381;28;87853;-90
2023/03/26 09:34:10;;;;;;;160.55;49.03;;;21.80;63.60;;;;;;4862924;28;93253;-89
2023/03/26 09:37:12;;;;;;;168.98;47.63;;;21.80;64.10;;;;;;4874324;28;87612;-89
2023/03/26 09:40:21;;;;;;;88.25;27.77;;;21.80;63.00;;;;;;4904597;28;89685;-91
2023/03/26 09:43:05;;;;;;;129.57;39.50;;;21.80;59.20;;;;;;4920734;28;88797;-91
2023/03/26 09:45:52;;;;;;;149.63;44.63;;;21.80;61.00;;;;;;4921590;28;87297;-90
2023/03/26 09:48:30;;;;;;;129.77;42.67;;;21.70;62.40;;;;;;4920855;28;96233;-90
2023/03/26 09:51:06;;;;;;;135.38;42.58;;;21.80;62.90;;;;;;4918043;28;88031;-91
2023/03/26 09:53:58;;;;;;;123.97;41.92;;;21.80;63.00;;;;;;4909893;28;87633;-90
2023/03/26 09:56:37;;;;;;;136.48;43.75;;;21.90;63.30;;;;;;4921422;28;88579;-91
2023/03/26 09:59:22;;;;;;;;;;;21.90;63.70;;;;;;4922414;28;87797;-88
2023/03/26 10:02:16;;;;;;;137.93;43.00;;;21.90;64.10;;;;;;4946730;28;86979;-90
2023/03/26 10:05:40;;;;;;;130.90;41.00;;;21.80;64.30;;;;;;4902814;28;87054;-91
2023/03/26 10:08:40;;;;;;;146.52;41.92;;;21.80;64.60;;;;;;4865517;28;88266;-90
2023/03/26 10:11:21;;;;;;;136.68;42.95;;;21.80;64.90;;;;;;4886673;28;89521;-88
2023/03/26 10:14:11;;;;;;;136.93;41.97;;;21.80;65.60;;;;;;4882602;28;89334;-89
2023/03/26 10:17:10;;;;;;;124.10;40.88;;;21.80;66.80;;;;;;4884587;28;87557;-88
2023/03/26 10:19:47;;;;;;;127.15;39.83;;;21.80;67.20;;;;;;4875202;28;88402;-87
2023/03/26 10:22:21;;;;;;;128.40;38.92;;;21.70;68.30;;;;;;4889396;28;87907;-87
2023/03/26 10:25:31;;;;;;;129.60;40.42;;;21.80;68.00;;;;;;4886400;28;92601;-88
2023/03/26 10:28:08;;;;;;;127.82;38.38;;;21.80;67.30;;;;;;4850026;29;88216;-88
2023/03/26 10:30:53;;;;;;;113.95;36.42;;;21.90;67.40;;;;;;4847865;29;87383;-84
2023/03/26 10:33:32;;;;;;;109.45;36.65;;;21.90;67.00;;;;;;4830808;29;90310;-82
2023/03/26 10:36:28;;;;;;;108.55;37.38;;;21.90;66.90;;;;;;4830435;29;87312;-83
2023/03/26 10:39:15;;;;;;;108.22;35.13;;;21.90;66.70;;;;;;4828264;29;88013;-84
2023/03/26 10:41:59;;;;;;;110.70;35.35;;;21.90;66.50;;;;;;4838708;28;88842;-83
2023/03/26 10:45:02;;;;;;;105.47;33.42;;;21.80;66.90;;;;;;4850197;29;88815;-85
2023/03/26 10:47:51;;;;;;;106.65;36.05;;;21.90;66.20;;;;;;4851824;28;87564;-83
2023/03/26 10:50:52;;;;;;;104.50;36.13;;;21.90;66.30;;;;;;4849673;29;88296;-83
2023/03/26 10:53:40;;;;;;;109.90;36.20;;;21.80;66.90;;;;;;4833781;29;88844;-83
2023/03/26 10:56:12;;;;;;;106.85;33.42;;;21.80;67.60;;;;;;4849120;29;88589;-84
2023/03/26 10:58:39;;;;;;;102.18;34.90;;;21.80;67.30;;;;;;4882920;28;88819;-83
2023/03/26 11:01:14;;;;;;;95.15;33.90;;;21.70;67.00;;;;;;4926976;28;87515;-82
2023/03/26 11:03:51;;;;;;;93.40;32.13;;;21.70;67.20;;;;;;4927184;28;87642;-84
2023/03/26 11:06:24;;;;;;;91.75;33.30;;;21.70;66.70;;;;;;4927515;28;90240;-84
2023/03/26 11:09:06;;;;;;;99.97;33.45;;;21.80;66.80;;;;;;4927664;28;89777;-83
2023/03/26 11:11:47;;;;;;;81.40;28.95;;;21.90;66.50;;;;;;4925306;28;87111;-83
2023/03/26 11:14:34;;;;;;;87.30;31.88;;;21.90;65.80;;;;;;4927152;28;87287;-84
2023/03/26 11:17:24;;;;;;;87.07;30.20;;;22.00;66.20;;;;;;4922521;28;89601;-82
2023/03/26 11:20:01;;;;;;;89.35;32.17;;;21.90;66.20;;;;;;4927168;28;91953;-83
2023/03/26 11:22:32;;;;;;;84.85;30.60;;;21.90;66.10;;;;;;4923026;28;87622;-89
2023/03/26 11:25:16;;;;;;;84.85;28.77;;;21.90;65.90;;;;;;4937587;28;87425;-91
2023/03/26 11:28:17;;;;;;;84.82;30.25;;;21.90;66.50;;;;;;4921819;28;87931;-91
2023/03/26 11:30:58;;;;;;;90.95;31.02;;;21.90;66.40;;;;;;4908337;28;87993;-91
2023/03/26 11:33:33;;;;;;;78.88;29.63;;;21.90;66.80;;;;;;4926688;28;88793;-91
2023/03/26 11:36:06;;;;;;;80.90;30.33;;;21.90;66.70;;;;;;4929401;28;87456;-90
2023/03/26 11:38:42;;;;;;;86.28;30.30;;;21.90;66.60;;;;;;4930498;28;90493;-89
2023/03/26 11:41:20;;;;;;;75.63;29.75;;;21.90;66.60;;;;;;4927821;28;89822;-90
2023/03/26 11:43:51;;;;;;;71.93;28.35;;;22.00;66.40;;;;;;4931124;28;87393;-91
2023/03/26 11:46:19;;;;;;;77.07;28.70;;;22.10;66.50;;;;;;4928914;28;87424;-90
2023/03/26 11:48:58;;;;;;;68.68;28.48;;;22.20;66.40;;;;;;4928174;28;92795;-89
2023/03/26 11:51:31;;;;;;;68.18;25.92;;;22.30;66.10;;;;;;4912651;28;89860;-90
2023/03/26 11:53:58;;;;;;;68.60;24.90;;;22.30;66.00;;;;;;4913754;28;87330;-90
2023/03/26 11:56:33;;;;;;;67.75;26.42;;;22.40;66.10;;;;;;4913283;28;87923;-90
2023/03/26 11:59:08;;;;;;;71.18;27.25;;;22.40;65.90;;;;;;4913364;28;88657;-90
2023/03/26 12:01:57;;;;;;;70.22;26.48;;;22.40;65.50;;;;;;4903141;28;88903;-91
2023/03/26 12:04:27;;;;;;;;;;;22.40;65.70;;;;;;4916233;28;87581;-90
2023/03/26 12:07:32;;;;;;;70.47;25.70;;;22.40;65.70;;;;;;4939841;28;88689;-88
2023/03/26 12:10:00;;;;;;;72.78;24.92;;;22.40;65.70;;;;;;4921942;28;93976;-87
2023/03/26 12:12:41;;;;;;;63.45;22.98;;;22.50;65.20;;;;;;4927602;28;88274;-92
2023/03/26 12:15:18;;;;;;;64.93;24.90;;;22.40;65.30;;;;;;4925202;28;87138;-89
2023/03/26 12:17:46;;;;;;;62.05;24.05;;;22.40;65.60;;;;;;4922013;28;88588;-90
2023/03/26 12:20:24;;;;;;;77.60;24.52;;;22.40;66.00;;;;;;4915719;28;88218;-90
2023/03/26 12:23:00;;;;;;;58.67;22.02;;;22.30;65.50;;;;;;4924018;28;87535;-88
2023/03/26 12:25:27;;;;;;;62.65;23.40;;;22.40;64.30;;;;;;4925825;28;88622;-92
2023/03/26 12:28:14;;;;;;;58.88;23.98;;;22.40;65.20;;;;;;4922929;28;87080;-90
2023/03/26 12:30:50;;;;;;;69.75;24.45;;;22.40;65.80;;;;;;4922536;28;87987;-91
2023/03/26 12:33:25;;;;;;;57.05;22.52;;;22.40;65.20;;;;;;4875745;28;88604;-91
2023/03/26 12:35:56;;;;;;;62.50;23.42;;;22.40;65.10;;;;;;4928515;28;87538;-90
2023/03/26 12:38:36;;;;;;;57.30;22.38;;;22.40;64.50;;;;;;4924524;28;88092;-88
2023/03/26 12:41:07;;;;;;;;;;;22.40;64.90;;;;;;4922988;28;90144;-89
2023/03/26 12:43:44;;;;;;;59.30;23.40;;;22.50;65.10;;;;;;4928449;28;87194;-90
2023/03/26 12:46:33;;;;;;;63.42;21.75;;;22.50;65.30;;;;;;4927216;28;87512;-91
2023/03/26 12:49:04;;;;;;;52.65;19.17;;;22.50;65.50;;;;;;4927221;28;91220;-90
2023/03/26 12:51:52;;;;;;;56.47;21.52;;;22.60;63.00;;;;;;4943671;28;90101;-89
2023/03/26 12:54:48;;;;;;;53.70;21.50;;;22.60;64.50;;;;;;4946022;28;88271;-88
2023/03/26 12:57:21;;;;;;;62.17;20.73;;;22.50;64.60;;;;;;4944104;28;86971;-82
2023/03/26 13:00:11;;;;;;;52.25;18.30;;;22.60;64.70;;;;;;4943969;28;87747;-82
2023/03/26 13:03:01;;;;;;;55.65;19.70;;;22.60;63.70;;;;;;4929833;28;88419;-82
2023/03/26 13:05:58;;;;;;;54.42;18.95;;;22.80;64.20;;;;;;4924981;28;87827;-83
2023/03/26 13:08:41;;;;;;;41.53;16.90;;;22.90;64.60;;;;;;4925525;28;87389;-83
2023/03/26 13:11:28;;;;;;;50.75;17.92;;;23.00;64.80;;;;;;4921744;28;87951;-83
2023/03/26 13:14:21;;;;;;;51.03;18.77;;;23.10;65.20;;;;;;4921747;28;87865;-82
2023/03/26 13:16:53;;;;;;;43.40;17.08;;;23.10;65.80;;;;;;4922233;28;87436;-83